< < Back
Terminal Aerodrome Forecast


Current Version              Previous Versions:   1  2  3  4  5  6  7  8  9  

Terminal Aerodrome Forecast

929
FTUS42 KFFC 271127
TAFMCN
TAF
KMCN 271127Z 2712/2812 27007G15KT P6SM SKC
     FM271400 31012G23KT P6SM FEW050
     FM280000 31007KT P6SM SKC=



Latest METAR

293
SAUS80 KWBC 271100 RRA
MTRMCN
METAR KMCN 271053Z AUTO 27006KT 10SM CLR 04/M01 A3018 RMK AO2 SLP219
T00391006 TSNO


USA.gov is the U.S. government's official web portal to all federal, state and local government web resources and services.